sensor_id;sensor_type;location;lat;lon;timestamp;pressure;altitude;pressure_sealevel;temperature;humidity
69027;BME280;56080;47.594;19.116;2023-02-03T00:06:12;100800;;;3.20;74.12
69027;BME280;56080;47.594;19.116;2023-02-03T00:16:13;100815;;;3.07;73.29
69027;BME280;56080;47.594;19.116;2023-02-03T00:26:13;100834;;;2.93;73.83
69027;BME280;56080;47.594;19.116;2023-02-03T00:36:13;100838;;;2.90;73.68
69027;BME280;56080;47.594;19.116;2023-02-03T00:46:14;100836;;;2.84;72.42
69027;BME280;56080;47.594;19.116;2023-02-03T00:56:14;100840;;;2.73;71.35
69027;BME280;56080;47.594;19.116;2023-02-03T01:16:16;100877;;;2.70;68.59
69027;BME280;56080;47.594;19.116;2023-02-03T01:26:16;100888;;;2.62;68.75
69027;BME280;56080;47.594;19.116;2023-02-03T01:36:16;100888;;;2.61;67.04
69027;BME280;56080;47.594;19.116;2023-02-03T01:56:16;100898;;;2.60;64.32
69027;BME280;56080;47.594;19.116;2023-02-03T02:06:16;100900;;;2.59;64.47
69027;BME280;56080;47.594;19.116;2023-02-03T02:16:20;100894;;;2.47;63.49
69027;BME280;56080;47.594;19.116;2023-02-03T02:46:22;100913;;;2.56;61.03
69027;BME280;56080;47.594;19.116;2023-02-03T02:56:17;100919;;;2.57;60.15
69027;BME280;56080;47.594;19.116;2023-02-03T03:16:20;100948;;;2.41;60.36
69027;BME280;56080;47.594;19.116;2023-02-03T03:26:27;100938;;;2.37;61.30
69027;BME280;56080;47.594;19.116;2023-02-03T03:36:28;100940;;;2.26;61.12
69027;BME280;56080;47.594;19.116;2023-02-03T03:46:20;100943;;;2.11;62.22
69027;BME280;56080;47.594;19.116;2023-02-03T03:56:22;100937;;;2.29;61.15
69027;BME280;56080;47.594;19.116;2023-02-03T04:06:20;100933;;;2.12;60.95
69027;BME280;56080;47.594;19.116;2023-02-03T04:16:21;100936;;;1.94;61.62
69027;BME280;56080;47.594;19.116;2023-02-03T04:26:21;100930;;;1.85;62.39
69027;BME280;56080;47.594;19.116;2023-02-03T04:36:21;100939;;;1.86;63.12
69027;BME280;56080;47.594;19.116;2023-02-03T04:46:21;100930;;;1.86;62.14
69027;BME280;56080;47.594;19.116;2023-02-03T04:56:22;100896;;;1.87;61.24
69027;BME280;56080;47.594;19.116;2023-02-03T05:06:23;100876;;;1.90;59.66
69027;BME280;56080;47.594;19.116;2023-02-03T05:16:22;100861;;;2.03;58.59
69027;BME280;56080;47.594;19.116;2023-02-03T05:26:23;100886;;;2.10;57.96
69027;BME280;56080;47.594;19.116;2023-02-03T05:36:23;100896;;;2.13;57.67
69027;BME280;56080;47.594;19.116;2023-02-03T05:46:23;100920;;;2.21;57.56
69027;BME280;56080;47.594;19.116;2023-02-03T05:56:24;100934;;;2.17;56.23
69027;BME280;56080;47.594;19.116;2023-02-03T06:06:24;100935;;;2.16;57.43
69027;BME280;56080;47.594;19.116;2023-02-03T06:16:24;100905;;;2.30;55.66
69027;BME280;56080;47.594;19.116;2023-02-03T06:26:24;100919;;;2.34;55.09
69027;BME280;56080;47.594;19.116;2023-02-03T06:36:24;100924;;;2.48;54.69
69027;BME280;56080;47.594;19.116;2023-02-03T06:46:28;100921;;;2.53;55.17
69027;BME280;56080;47.594;19.116;2023-02-03T06:56:25;100925;;;2.40;56.20
69027;BME280;56080;47.594;19.116;2023-02-03T07:06:28;100929;;;2.47;55.69
69027;BME280;56080;47.594;19.116;2023-02-03T07:16:26;100920;;;2.54;55.10
69027;BME280;56080;47.594;19.116;2023-02-03T07:26:26;100923;;;2.53;56.05
69027;BME280;56080;47.594;19.116;2023-02-03T07:36:27;100942;;;2.63;58.87
69027;BME280;56080;47.594;19.116;2023-02-03T07:46:27;100941;;;2.76;58.39
69027;BME280;56080;47.594;19.116;2023-02-03T07:56:27;100938;;;2.77;57.99
69027;BME280;56080;47.594;19.116;2023-02-03T08:06:29;100941;;;2.86;56.91
69027;BME280;56080;47.594;19.116;2023-02-03T08:16:27;100946;;;2.78;57.18
69027;BME280;56080;47.594;19.116;2023-02-03T08:26:28;100939;;;2.77;58.37
69027;BME280;56080;47.594;19.116;2023-02-03T08:36:28;100961;;;2.77;58.56
69027;BME280;56080;47.594;19.116;2023-02-03T08:46:28;100964;;;2.75;58.92
69027;BME280;56080;47.594;19.116;2023-02-03T08:56:29;100973;;;2.75;60.48
69027;BME280;56080;47.594;19.116;2023-02-03T09:06:33;100975;;;2.72;61.40
69027;BME280;56080;47.594;19.116;2023-02-03T09:16:30;100974;;;2.51;67.98
69027;BME280;56080;47.594;19.116;2023-02-03T09:26:29;100971;;;2.17;75.81
69027;BME280;56080;47.594;19.116;2023-02-03T09:36:31;100962;;;1.93;81.35
69027;BME280;56080;47.594;19.116;2023-02-03T09:46:32;100947;;;1.74;85.16
69027;BME280;56080;47.594;19.116;2023-02-03T09:56:31;100923;;;1.94;86.38
69027;BME280;56080;47.594;19.116;2023-02-03T10:06:32;100907;;;1.75;88.24
69027;BME280;56080;47.594;19.116;2023-02-03T10:16:34;100873;;;1.37;93.41
69027;BME280;56080;47.594;19.116;2023-02-03T10:26:31;100847;;;1.12;96.63
69027;BME280;56080;47.594;19.116;2023-02-03T10:36:34;100826;;;1.19;98.21
69027;BME280;56080;47.594;19.116;2023-02-03T10:46:33;100800;;;1.14;99.20
69027;BME280;56080;47.594;19.116;2023-02-03T10:56:34;100787;;;1.08;100.00
69027;BME280;56080;47.594;19.116;2023-02-03T11:06:32;100764;;;1.07;100.00
69027;BME280;56080;47.594;19.116;2023-02-03T11:16:32;100735;;;1.27;100.00
69027;BME280;56080;47.594;19.116;2023-02-03T11:26:33;100709;;;1.28;100.00
69027;BME280;56080;47.594;19.116;2023-02-03T11:36:34;100673;;;1.64;100.00
69027;BME280;56080;47.594;19.116;2023-02-03T11:46:35;100645;;;1.43;100.00
69027;BME280;56080;47.594;19.116;2023-02-03T12:16:45;100582;;;1.39;100.00
69027;BME280;56080;47.594;19.116;2023-02-03T12:21:10;100562;;;1.17;100.00
69027;BME280;56080;47.594;19.116;2023-02-03T12:26:45;100544;;;1.23;100.00
69027;BME280;56080;47.594;19.116;2023-02-03T12:36:37;100508;;;1.27;100.00
69027;BME280;56080;47.594;19.116;2023-02-03T12:46:36;100474;;;1.26;100.00
69027;BME280;56080;47.594;19.116;2023-02-03T12:56:36;100443;;;1.38;100.00
69027;BME280;56080;47.594;19.116;2023-02-03T13:06:40;100419;;;1.28;100.00
69027;BME280;56080;47.594;19.116;2023-02-03T13:16:36;100399;;;1.29;100.00
69027;BME280;56080;47.594;19.116;2023-02-03T13:26:43;100382;;;1.44;100.00
69027;BME280;56080;47.594;19.116;2023-02-03T13:46:36;100338;;;1.47;100.00
69027;BME280;56080;47.594;19.116;2023-02-03T13:56:38;100332;;;1.58;100.00
69027;BME280;56080;47.594;19.116;2023-02-03T14:16:38;100288;;;1.79;100.00
69027;BME280;56080;47.594;19.116;2023-02-03T14:26:38;100279;;;1.95;100.00
69027;BME280;56080;47.594;19.116;2023-02-03T14:46:44;100246;;;2.09;100.00
69027;BME280;56080;47.594;19.116;2023-02-03T15:16:41;100203;;;2.64;100.00
69027;BME280;56080;47.594;19.116;2023-02-03T15:26:43;100183;;;2.63;100.00
69027;BME280;56080;47.594;19.116;2023-02-03T15:36:42;100156;;;2.83;100.00
69027;BME280;56080;47.594;19.116;2023-02-03T15:46:42;100153;;;2.93;100.00
69027;BME280;56080;47.594;19.116;2023-02-03T16:06:44;100144;;;3.07;100.00
69027;BME280;56080;47.594;19.116;2023-02-03T16:16:41;100134;;;3.13;100.00
69027;BME280;56080;47.594;19.116;2023-02-03T16:26:40;100123;;;2.92;100.00
69027;BME280;56080;47.594;19.116;2023-02-03T16:36:50;100085;;;2.84;100.00
69027;BME280;56080;47.594;19.116;2023-02-03T16:46:52;100056;;;2.66;100.00
69027;BME280;56080;47.594;19.116;2023-02-03T17:06:50;100010;;;2.67;100.00
69027;BME280;56080;47.594;19.116;2023-02-03T17:16:44;99976;;;2.82;100.00
69027;BME280;56080;47.594;19.116;2023-02-03T17:26:44;99957;;;3.02;100.00
69027;BME280;56080;47.594;19.116;2023-02-03T17:46:52;99931;;;3.40;100.00
69027;BME280;56080;47.594;19.116;2023-02-03T17:56:48;99932;;;3.62;100.00
69027;BME280;56080;47.594;19.116;2023-02-03T18:06:43;99918;;;3.85;100.00
69027;BME280;56080;47.594;19.116;2023-02-03T18:16:44;99885;;;4.05;100.00
69027;BME280;56080;47.594;19.116;2023-02-03T18:26:49;99878;;;4.14;100.00
69027;BME280;56080;47.594;19.116;2023-02-03T18:36:48;99885;;;4.29;100.00
69027;BME280;56080;47.594;19.116;2023-02-03T18:46:44;99901;;;4.40;100.00
69027;BME280;56080;47.594;19.116;2023-02-03T18:56:49;99917;;;4.59;100.00
69027;BME280;56080;47.594;19.116;2023-02-03T19:06:47;99883;;;4.76;100.00
69027;BME280;56080;47.594;19.116;2023-02-03T19:16:51;99829;;;4.74;98.20
69027;BME280;56080;47.594;19.116;2023-02-03T19:26:48;99842;;;4.69;97.74
69027;BME280;56080;47.594;19.116;2023-02-03T19:36:51;99858;;;4.65;95.12
69027;BME280;56080;47.594;19.116;2023-02-03T19:46:48;99864;;;4.65;91.99
69027;BME280;56080;47.594;19.116;2023-02-03T19:56:52;99853;;;4.68;91.85
69027;BME280;56080;47.594;19.116;2023-02-03T20:06:49;99842;;;4.64;89.53
69027;BME280;56080;47.594;19.116;2023-02-03T20:16:50;99847;;;4.53;89.33
69027;BME280;56080;47.594;19.116;2023-02-03T20:26:52;99807;;;4.45;88.59
69027;BME280;56080;47.594;19.116;2023-02-03T20:36:52;99826;;;4.43;90.00
69027;BME280;56080;47.594;19.116;2023-02-03T20:46:51;99806;;;4.49;91.39
69027;BME280;56080;47.594;19.116;2023-02-03T20:56:49;99774;;;4.43;91.62
69027;BME280;56080;47.594;19.116;2023-02-03T21:06:50;99782;;;4.38;90.71
69027;BME280;56080;47.594;19.116;2023-02-03T21:16:50;99796;;;4.37;89.38
69027;BME280;56080;47.594;19.116;2023-02-03T21:26:53;99796;;;4.40;88.00
69027;BME280;56080;47.594;19.116;2023-02-03T21:36:52;99851;;;4.36;88.03
69027;BME280;56080;47.594;19.116;2023-02-03T21:46:51;99868;;;4.46;86.44
69027;BME280;56080;47.594;19.116;2023-02-03T21:56:56;99864;;;4.42;86.01
69027;BME280;56080;47.594;19.116;2023-02-03T22:06:53;99857;;;4.35;86.05
69027;BME280;56080;47.594;19.116;2023-02-03T22:16:52;99869;;;4.34;85.41
69027;BME280;56080;47.594;19.116;2023-02-03T22:26:53;99889;;;4.32;84.99
69027;BME280;56080;47.594;19.116;2023-02-03T22:36:55;99906;;;4.39;84.34
69027;BME280;56080;47.594;19.116;2023-02-03T22:46:55;99917;;;4.38;84.85
69027;BME280;56080;47.594;19.116;2023-02-03T22:56:54;99927;;;4.40;84.58
69027;BME280;56080;47.594;19.116;2023-02-03T23:06:56;99901;;;4.63;83.23
69027;BME280;56080;47.594;19.116;2023-02-03T23:26:55;99877;;;4.68;83.11
69027;BME280;56080;47.594;19.116;2023-02-03T23:37:00;99860;;;4.76;82.71
69027;BME280;56080;47.594;19.116;2023-02-03T23:46:56;99855;;;4.88;81.70
69027;BME280;56080;47.594;19.116;2023-02-03T23:56:57;99874;;;4.89;81.68
